Terminal Aerodrome Forecast
Issued by NWS

Home | Current Version | Previous Version | Graphics & Text | Print | Product List | Glossary On
Versions: 1 2 3 4 5 6 7 8 9 10 11 12 13 14 15 16 17 18 19 20 21 22 23 24 25 26 27 28 29 30 31 32
899
FTUS43 KLOT 240255 AAA
TAFORD
TAF AMD
KORD 240255Z 2403/2506 16010KT P6SM OVC045
     FM240500 16008KT P6SM OVC035
     FM240800 19008KT P6SM VCSH BKN025 OVC035
      TEMPO 2411/2415 3SM -TSRA OVC015CB
     FM241500 20011KT P6SM BKN015
     FM241900 21010G15KT P6SM BKN035
     FM250000 20008KT P6SM VCSH SCT035 BKN120 PROB30 2502/2506 3SM
      TSRA OVC025CB=

USA.gov is the U.S. government's official web portal to all federal, state and local government web resources and services.